sensor_id;sensor_type;location;lat;lon;timestamp;temperature;humidity
27823;DHT22;29019;47.630;8.262;2022-12-18T00:01:22;15.20;35.60
27823;DHT22;29019;47.630;8.262;2022-12-18T00:05:23;15.20;36.10
27823;DHT22;29019;47.630;8.262;2022-12-18T00:09:24;15.10;35.60
27823;DHT22;29019;47.630;8.262;2022-12-18T00:13:24;15.20;35.60
27823;DHT22;29019;47.630;8.262;2022-12-18T00:17:25;15.20;35.60
27823;DHT22;29019;47.630;8.262;2022-12-18T00:21:26;15.20;35.60
27823;DHT22;29019;47.630;8.262;2022-12-18T00:25:26;15.20;35.50
27823;DHT22;29019;47.630;8.262;2022-12-18T00:29:27;15.20;35.60
27823;DHT22;29019;47.630;8.262;2022-12-18T00:33:27;15.20;35.60
27823;DHT22;29019;47.630;8.262;2022-12-18T00:37:28;15.20;35.50
27823;DHT22;29019;47.630;8.262;2022-12-18T00:41:29;15.20;35.50
27823;DHT22;29019;47.630;8.262;2022-12-18T00:45:48;15.20;35.40
27823;DHT22;29019;47.630;8.262;2022-12-18T00:49:48;15.30;35.50
27823;DHT22;29019;47.630;8.262;2022-12-18T00:53:48;15.30;35.50
27823;DHT22;29019;47.630;8.262;2022-12-18T00:57:50;15.30;35.50
27823;DHT22;29019;47.630;8.262;2022-12-18T01:01:50;15.30;35.50
27823;DHT22;29019;47.630;8.262;2022-12-18T01:05:51;15.30;35.40
27823;DHT22;29019;47.630;8.262;2022-12-18T01:09:51;15.30;35.40
27823;DHT22;29019;47.630;8.262;2022-12-18T01:13:53;15.30;35.40
27823;DHT22;29019;47.630;8.262;2022-12-18T01:17:54;15.30;35.50
27823;DHT22;29019;47.630;8.262;2022-12-18T01:21:54;15.20;35.50
27823;DHT22;29019;47.630;8.262;2022-12-18T01:25:54;15.20;35.40
27823;DHT22;29019;47.630;8.262;2022-12-18T01:29:55;15.20;35.50
27823;DHT22;29019;47.630;8.262;2022-12-18T01:33:56;15.30;35.50
27823;DHT22;29019;47.630;8.262;2022-12-18T01:37:56;15.20;35.50
27823;DHT22;29019;47.630;8.262;2022-12-18T01:41:57;15.20;35.60
27823;DHT22;29019;47.630;8.262;2022-12-18T01:46:04;15.20;35.60
27823;DHT22;29019;47.630;8.262;2022-12-18T01:50:06;15.20;35.50
27823;DHT22;29019;47.630;8.262;2022-12-18T01:54:07;15.20;35.60
27823;DHT22;29019;47.630;8.262;2022-12-18T01:58:08;15.20;35.60
27823;DHT22;29019;47.630;8.262;2022-12-18T02:02:08;15.20;35.60
27823;DHT22;29019;47.630;8.262;2022-12-18T02:06:29;15.20;35.60
27823;DHT22;29019;47.630;8.262;2022-12-18T02:10:41;15.20;35.60
27823;DHT22;29019;47.630;8.262;2022-12-18T02:14:45;15.20;35.60
27823;DHT22;29019;47.630;8.262;2022-12-18T02:18:47;15.20;35.60
27823;DHT22;29019;47.630;8.262;2022-12-18T02:23:01;15.20;35.60
27823;DHT22;29019;47.630;8.262;2022-12-18T02:27:06;15.20;35.60
27823;DHT22;29019;47.630;8.262;2022-12-18T02:31:10;15.20;35.60
27823;DHT22;29019;47.630;8.262;2022-12-18T02:35:15;15.30;35.60
27823;DHT22;29019;47.630;8.262;2022-12-18T02:39:16;15.30;35.50
27823;DHT22;29019;47.630;8.262;2022-12-18T02:43:18;15.30;35.50
27823;DHT22;29019;47.630;8.262;2022-12-18T02:47:19;15.20;35.50
27823;DHT22;29019;47.630;8.262;2022-12-18T02:51:30;15.30;35.50
27823;DHT22;29019;47.630;8.262;2022-12-18T02:55:46;15.30;35.50
27823;DHT22;29019;47.630;8.262;2022-12-18T02:59:58;15.30;35.40
27823;DHT22;29019;47.630;8.262;2022-12-18T03:04:03;15.30;35.40
27823;DHT22;29019;47.630;8.262;2022-12-18T03:08:08;15.30;35.50
27823;DHT22;29019;47.630;8.262;2022-12-18T03:12:30;15.30;35.50
27823;DHT22;29019;47.630;8.262;2022-12-18T03:16:31;15.30;35.50
27823;DHT22;29019;47.630;8.262;2022-12-18T03:20:34;15.20;35.50
27823;DHT22;29019;47.630;8.262;2022-12-18T03:24:35;15.20;35.60
27823;DHT22;29019;47.630;8.262;2022-12-18T03:28:43;15.20;35.60
27823;DHT22;29019;47.630;8.262;2022-12-18T03:32:50;15.20;35.80
27823;DHT22;29019;47.630;8.262;2022-12-18T03:36:51;15.20;35.60
27823;DHT22;29019;47.630;8.262;2022-12-18T03:45:18;15.20;35.60
27823;DHT22;29019;47.630;8.262;2022-12-18T03:49:23;15.20;35.60
27823;DHT22;29019;47.630;8.262;2022-12-18T03:53:28;15.20;35.60
27823;DHT22;29019;47.630;8.262;2022-12-18T03:57:31;15.20;35.60
27823;DHT22;29019;47.630;8.262;2022-12-18T04:01:36;15.20;35.60
27823;DHT22;29019;47.630;8.262;2022-12-18T04:05:38;15.20;35.60
27823;DHT22;29019;47.630;8.262;2022-12-18T04:09:39;15.10;35.50
27823;DHT22;29019;47.630;8.262;2022-12-18T04:13:41;15.20;35.60
27823;DHT22;29019;47.630;8.262;2022-12-18T04:17:47;15.20;35.60
27823;DHT22;29019;47.630;8.262;2022-12-18T04:21:47;15.20;35.60
27823;DHT22;29019;47.630;8.262;2022-12-18T04:25:48;15.20;35.60
27823;DHT22;29019;47.630;8.262;2022-12-18T04:29:48;15.20;35.50
27823;DHT22;29019;47.630;8.262;2022-12-18T04:33:49;15.30;35.50
27823;DHT22;29019;47.630;8.262;2022-12-18T04:37:49;15.30;35.40
27823;DHT22;29019;47.630;8.262;2022-12-18T04:41:50;15.30;35.40
27823;DHT22;29019;47.630;8.262;2022-12-18T04:45:50;15.30;35.30
27823;DHT22;29019;47.630;8.262;2022-12-18T04:49:51;15.30;35.40
27823;DHT22;29019;47.630;8.262;2022-12-18T04:53:51;15.30;35.40
27823;DHT22;29019;47.630;8.262;2022-12-18T04:57:52;15.30;35.40
27823;DHT22;29019;47.630;8.262;2022-12-18T05:01:52;15.30;35.40
27823;DHT22;29019;47.630;8.262;2022-12-18T05:05:53;15.30;35.40
27823;DHT22;29019;47.630;8.262;2022-12-18T05:09:53;15.30;35.30
27823;DHT22;29019;47.630;8.262;2022-12-18T05:13:54;15.40;35.40
27823;DHT22;29019;47.630;8.262;2022-12-18T05:17:54;15.30;35.30
27823;DHT22;29019;47.630;8.262;2022-12-18T05:21:55;15.30;35.30
27823;DHT22;29019;47.630;8.262;2022-12-18T05:25:56;15.30;35.30
27823;DHT22;29019;47.630;8.262;2022-12-18T05:29:57;15.30;35.40
27823;DHT22;29019;47.630;8.262;2022-12-18T05:33:57;15.30;35.40
27823;DHT22;29019;47.630;8.262;2022-12-18T05:37:58;15.30;35.40
27823;DHT22;29019;47.630;8.262;2022-12-18T05:41:58;15.20;35.40
27823;DHT22;29019;47.630;8.262;2022-12-18T05:46:02;15.20;35.50
27823;DHT22;29019;47.630;8.262;2022-12-18T05:50:03;15.20;35.40
27823;DHT22;29019;47.630;8.262;2022-12-18T05:54:04;15.20;36.00
27823;DHT22;29019;47.630;8.262;2022-12-18T05:58:05;15.20;35.50
27823;DHT22;29019;47.630;8.262;2022-12-18T06:02:06;15.20;35.50
27823;DHT22;29019;47.630;8.262;2022-12-18T06:06:13;15.20;35.50
27823;DHT22;29019;47.630;8.262;2022-12-18T06:10:14;15.20;35.50
27823;DHT22;29019;47.630;8.262;2022-12-18T06:14:14;15.20;35.50
27823;DHT22;29019;47.630;8.262;2022-12-18T06:18:17;15.20;35.50
27823;DHT22;29019;47.630;8.262;2022-12-18T06:22:17;15.20;35.50
27823;DHT22;29019;47.630;8.262;2022-12-18T06:26:18;15.10;35.50
27823;DHT22;29019;47.630;8.262;2022-12-18T06:30:18;15.10;35.50
27823;DHT22;29019;47.630;8.262;2022-12-18T06:34:19;15.20;35.50
27823;DHT22;29019;47.630;8.262;2022-12-18T06:38:19;15.20;35.50
27823;DHT22;29019;47.630;8.262;2022-12-18T06:42:20;15.20;35.50
27823;DHT22;29019;47.630;8.262;2022-12-18T06:46:20;15.20;35.50
27823;DHT22;29019;47.630;8.262;2022-12-18T06:50:20;15.20;35.60
27823;DHT22;29019;47.630;8.262;2022-12-18T06:54:21;15.20;35.60
27823;DHT22;29019;47.630;8.262;2022-12-18T06:58:21;15.20;35.50
27823;DHT22;29019;47.630;8.262;2022-12-18T07:02:22;15.30;35.50
27823;DHT22;29019;47.630;8.262;2022-12-18T07:06:23;15.30;35.40
27823;DHT22;29019;47.630;8.262;2022-12-18T07:10:25;15.30;36.00
27823;DHT22;29019;47.630;8.262;2022-12-18T07:14:25;15.30;35.40
27823;DHT22;29019;47.630;8.262;2022-12-18T07:18:26;15.30;35.40
27823;DHT22;29019;47.630;8.262;2022-12-18T07:22:26;15.30;35.40
27823;DHT22;29019;47.630;8.262;2022-12-18T07:26:26;15.30;35.40
27823;DHT22;29019;47.630;8.262;2022-12-18T07:30:27;15.30;35.40
27823;DHT22;29019;47.630;8.262;2022-12-18T07:34:27;15.20;35.40
27823;DHT22;29019;47.630;8.262;2022-12-18T07:38:28;15.20;35.40
27823;DHT22;29019;47.630;8.262;2022-12-18T07:42:28;15.20;35.40
27823;DHT22;29019;47.630;8.262;2022-12-18T07:46:31;15.20;35.40
27823;DHT22;29019;47.630;8.262;2022-12-18T07:50:32;15.20;35.40
27823;DHT22;29019;47.630;8.262;2022-12-18T07:54:32;15.20;35.50
27823;DHT22;29019;47.630;8.262;2022-12-18T07:58:33;15.20;35.40
27823;DHT22;29019;47.630;8.262;2022-12-18T08:02:34;15.20;35.50
27823;DHT22;29019;47.630;8.262;2022-12-18T08:06:34;15.10;35.50
27823;DHT22;29019;47.630;8.262;2022-12-18T08:10:35;15.20;35.50
27823;DHT22;29019;47.630;8.262;2022-12-18T08:14:35;15.10;35.40
27823;DHT22;29019;47.630;8.262;2022-12-18T08:18:36;15.10;35.40
27823;DHT22;29019;47.630;8.262;2022-12-18T08:22:36;15.20;35.50
27823;DHT22;29019;47.630;8.262;2022-12-18T08:26:37;15.20;35.50
27823;DHT22;29019;47.630;8.262;2022-12-18T08:30:37;15.10;35.40
27823;DHT22;29019;47.630;8.262;2022-12-18T08:34:38;15.10;35.40
27823;DHT22;29019;47.630;8.262;2022-12-18T08:38:38;15.10;35.40
27823;DHT22;29019;47.630;8.262;2022-12-18T08:42:39;15.10;35.40
27823;DHT22;29019;47.630;8.262;2022-12-18T08:46:58;15.10;35.40
27823;DHT22;29019;47.630;8.262;2022-12-18T08:50:59;15.10;35.50
27823;DHT22;29019;47.630;8.262;2022-12-18T08:54:59;15.10;35.40
27823;DHT22;29019;47.630;8.262;2022-12-18T08:59:00;15.20;35.50
27823;DHT22;29019;47.630;8.262;2022-12-18T09:03:00;15.10;35.40
27823;DHT22;29019;47.630;8.262;2022-12-18T09:07:02;15.10;35.50
27823;DHT22;29019;47.630;8.262;2022-12-18T09:11:02;15.10;35.40
27823;DHT22;29019;47.630;8.262;2022-12-18T09:15:03;15.20;35.50
27823;DHT22;29019;47.630;8.262;2022-12-18T09:19:04;15.10;35.40
27823;DHT22;29019;47.630;8.262;2022-12-18T09:23:05;15.10;35.50
27823;DHT22;29019;47.630;8.262;2022-12-18T09:27:05;15.10;35.50
27823;DHT22;29019;47.630;8.262;2022-12-18T09:31:06;15.10;35.50
27823;DHT22;29019;47.630;8.262;2022-12-18T09:35:07;15.10;35.50
27823;DHT22;29019;47.630;8.262;2022-12-18T09:39:08;15.20;35.60
27823;DHT22;29019;47.630;8.262;2022-12-18T09:43:10;15.20;35.60
27823;DHT22;29019;47.630;8.262;2022-12-18T09:51:18;15.20;35.30
27823;DHT22;29019;47.630;8.262;2022-12-18T09:55:24;15.30;35.40
27823;DHT22;29019;47.630;8.262;2022-12-18T09:59:34;15.30;35.40
27823;DHT22;29019;47.630;8.262;2022-12-18T10:03:35;15.20;35.40
27823;DHT22;29019;47.630;8.262;2022-12-18T10:11:54;15.30;35.30
27823;DHT22;29019;47.630;8.262;2022-12-18T10:20:05;15.30;35.30
27823;DHT22;29019;47.630;8.262;2022-12-18T10:28:12;15.40;35.40
27823;DHT22;29019;47.630;8.262;2022-12-18T10:32:14;15.30;35.30
27823;DHT22;29019;47.630;8.262;2022-12-18T10:36:15;15.30;35.40
27823;DHT22;29019;47.630;8.262;2022-12-18T10:40:15;15.30;35.40
27823;DHT22;29019;47.630;8.262;2022-12-18T10:44:20;15.30;35.30
27823;DHT22;29019;47.630;8.262;2022-12-18T10:48:21;15.30;35.40
27823;DHT22;29019;47.630;8.262;2022-12-18T10:52:23;15.30;35.30
27823;DHT22;29019;47.630;8.262;2022-12-18T10:56:26;15.30;35.40
27823;DHT22;29019;47.630;8.262;2022-12-18T11:00:28;15.30;35.40
27823;DHT22;29019;47.630;8.262;2022-12-18T11:04:30;15.30;35.40
27823;DHT22;29019;47.630;8.262;2022-12-18T11:08:31;15.30;35.50
27823;DHT22;29019;47.630;8.262;2022-12-18T11:12:31;15.30;35.40
27823;DHT22;29019;47.630;8.262;2022-12-18T11:16:50;15.30;35.40
27823;DHT22;29019;47.630;8.262;2022-12-18T11:20:52;15.30;35.40
27823;DHT22;29019;47.630;8.262;2022-12-18T11:29:09;15.30;35.40
27823;DHT22;29019;47.630;8.262;2022-12-18T11:33:13;15.30;35.30
27823;DHT22;29019;47.630;8.262;2022-12-18T11:37:16;15.30;35.30
27823;DHT22;29019;47.630;8.262;2022-12-18T11:41:37;15.40;35.40
27823;DHT22;29019;47.630;8.262;2022-12-18T11:46:04;15.40;35.30
27823;DHT22;29019;47.630;8.262;2022-12-18T11:50:11;15.40;35.20
27823;DHT22;29019;47.630;8.262;2022-12-18T11:54:13;15.40;35.30
27823;DHT22;29019;47.630;8.262;2022-12-18T12:02:25;15.40;35.30
27823;DHT22;29019;47.630;8.262;2022-12-18T12:40:11;15.40;35.40
27823;DHT22;29019;47.630;8.262;2022-12-18T12:44:14;15.40;35.30
27823;DHT22;29019;47.630;8.262;2022-12-18T12:52:37;15.40;35.40
27823;DHT22;29019;47.630;8.262;2022-12-18T12:56:43;15.40;35.40
27823;DHT22;29019;47.630;8.262;2022-12-18T13:00:53;15.40;35.50
27823;DHT22;29019;47.630;8.262;2022-12-18T13:05:00;15.40;35.40
27823;DHT22;29019;47.630;8.262;2022-12-18T13:09:01;15.40;35.40
27823;DHT22;29019;47.630;8.262;2022-12-18T13:13:09;15.40;35.50
27823;DHT22;29019;47.630;8.262;2022-12-18T13:21:24;15.40;35.50
27823;DHT22;29019;47.630;8.262;2022-12-18T13:25:31;15.40;35.50
27823;DHT22;29019;47.630;8.262;2022-12-18T13:29:40;15.40;35.50
27823;DHT22;29019;47.630;8.262;2022-12-18T13:33:44;15.40;35.50
27823;DHT22;29019;47.630;8.262;2022-12-18T13:37:51;15.40;35.50
27823;DHT22;29019;47.630;8.262;2022-12-18T13:46:24;15.40;35.50
27823;DHT22;29019;47.630;8.262;2022-12-18T13:50:26;15.40;35.60
27823;DHT22;29019;47.630;8.262;2022-12-18T13:58:30;15.40;35.50
27823;DHT22;29019;47.630;8.262;2022-12-18T14:02:30;15.40;35.50
27823;DHT22;29019;47.630;8.262;2022-12-18T14:06:31;15.40;35.50
27823;DHT22;29019;47.630;8.262;2022-12-18T14:10:32;15.30;35.50
27823;DHT22;29019;47.630;8.262;2022-12-18T14:14:33;15.40;35.50
27823;DHT22;29019;47.630;8.262;2022-12-18T14:22:33;15.30;35.50
27823;DHT22;29019;47.630;8.262;2022-12-18T14:26:34;15.30;35.50
27823;DHT22;29019;47.630;8.262;2022-12-18T14:30:36;15.30;35.50
27823;DHT22;29019;47.630;8.262;2022-12-18T14:34:37;15.40;35.60
27823;DHT22;29019;47.630;8.262;2022-12-18T14:38:38;15.40;35.50
27823;DHT22;29019;47.630;8.262;2022-12-18T14:42:39;15.40;35.60
27823;DHT22;29019;47.630;8.262;2022-12-18T14:46:41;15.40;35.60
27823;DHT22;29019;47.630;8.262;2022-12-18T14:50:43;15.30;35.50
27823;DHT22;29019;47.630;8.262;2022-12-18T14:54:45;15.30;35.50
27823;DHT22;29019;47.630;8.262;2022-12-18T15:02:54;15.30;35.50
27823;DHT22;29019;47.630;8.262;2022-12-18T15:19:37;15.30;35.50
27823;DHT22;29019;47.630;8.262;2022-12-18T15:23:51;15.30;35.50
27823;DHT22;29019;47.630;8.262;2022-12-18T15:27:51;15.30;35.60
27823;DHT22;29019;47.630;8.262;2022-12-18T15:32:02;15.30;35.50
27823;DHT22;29019;47.630;8.262;2022-12-18T15:36:04;15.30;35.60
27823;DHT22;29019;47.630;8.262;2022-12-18T15:40:05;15.30;35.60
27823;DHT22;29019;47.630;8.262;2022-12-18T15:44:22;15.30;35.60
27823;DHT22;29019;47.630;8.262;2022-12-18T15:48:22;15.30;35.60
27823;DHT22;29019;47.630;8.262;2022-12-18T15:52:23;15.30;35.50
27823;DHT22;29019;47.630;8.262;2022-12-18T15:56:26;15.30;35.60
27823;DHT22;29019;47.630;8.262;2022-12-18T16:00:45;15.30;35.60
27823;DHT22;29019;47.630;8.262;2022-12-18T16:04:45;15.30;35.60
27823;DHT22;29019;47.630;8.262;2022-12-18T16:08:46;15.30;35.60
27823;DHT22;29019;47.630;8.262;2022-12-18T16:12:46;15.30;35.60
27823;DHT22;29019;47.630;8.262;2022-12-18T16:16:48;15.30;35.60
27823;DHT22;29019;47.630;8.262;2022-12-18T16:20:49;15.30;35.60
27823;DHT22;29019;47.630;8.262;2022-12-18T16:24:50;15.30;35.60
27823;DHT22;29019;47.630;8.262;2022-12-18T16:28:51;15.30;35.50
27823;DHT22;29019;47.630;8.262;2022-12-18T16:32:56;15.30;35.60
27823;DHT22;29019;47.630;8.262;2022-12-18T16:36:58;15.30;35.60
27823;DHT22;29019;47.630;8.262;2022-12-18T16:40:58;15.30;35.60
27823;DHT22;29019;47.630;8.262;2022-12-18T16:45:17;15.30;35.60
27823;DHT22;29019;47.630;8.262;2022-12-18T16:49:18;15.30;35.70
27823;DHT22;29019;47.630;8.262;2022-12-18T16:53:19;15.30;35.70
27823;DHT22;29019;47.630;8.262;2022-12-18T16:57:19;15.30;35.60
27823;DHT22;29019;47.630;8.262;2022-12-18T17:01:20;15.20;35.60
27823;DHT22;29019;47.630;8.262;2022-12-18T17:05:21;15.30;35.60
27823;DHT22;29019;47.630;8.262;2022-12-18T17:09:21;15.30;35.70
27823;DHT22;29019;47.630;8.262;2022-12-18T17:13:25;15.20;35.60
27823;DHT22;29019;47.630;8.262;2022-12-18T17:17:26;15.30;35.70
27823;DHT22;29019;47.630;8.262;2022-12-18T17:21:27;15.20;35.60
27823;DHT22;29019;47.630;8.262;2022-12-18T17:25:28;15.20;35.60
27823;DHT22;29019;47.630;8.262;2022-12-18T17:29:28;15.30;35.60
27823;DHT22;29019;47.630;8.262;2022-12-18T17:33:29;15.30;35.60
27823;DHT22;29019;47.630;8.262;2022-12-18T17:37:29;15.30;35.60
27823;DHT22;29019;47.630;8.262;2022-12-18T17:41:30;15.30;35.70
27823;DHT22;29019;47.630;8.262;2022-12-18T17:45:31;15.30;35.70
27823;DHT22;29019;47.630;8.262;2022-12-18T17:49:33;15.30;35.70
27823;DHT22;29019;47.630;8.262;2022-12-18T17:53:34;15.30;35.60
27823;DHT22;29019;47.630;8.262;2022-12-18T17:57:34;15.30;35.50
27823;DHT22;29019;47.630;8.262;2022-12-18T18:01:35;15.40;35.70
27823;DHT22;29019;47.630;8.262;2022-12-18T18:05:36;15.40;35.60
27823;DHT22;29019;47.630;8.262;2022-12-18T18:09:36;15.40;35.50
27823;DHT22;29019;47.630;8.262;2022-12-18T18:13:37;15.40;35.60
27823;DHT22;29019;47.630;8.262;2022-12-18T18:17:56;15.40;35.60
27823;DHT22;29019;47.630;8.262;2022-12-18T18:21:56;15.40;35.60
27823;DHT22;29019;47.630;8.262;2022-12-18T18:26:04;15.40;35.70
27823;DHT22;29019;47.630;8.262;2022-12-18T18:30:05;15.40;35.60
27823;DHT22;29019;47.630;8.262;2022-12-18T18:34:05;15.40;35.60
27823;DHT22;29019;47.630;8.262;2022-12-18T18:38:06;15.40;35.60
27823;DHT22;29019;47.630;8.262;2022-12-18T18:42:06;15.40;35.60
27823;DHT22;29019;47.630;8.262;2022-12-18T18:46:07;15.40;35.50
27823;DHT22;29019;47.630;8.262;2022-12-18T18:50:09;15.40;35.60
27823;DHT22;29019;47.630;8.262;2022-12-18T18:54:11;15.30;35.60
27823;DHT22;29019;47.630;8.262;2022-12-18T18:58:12;15.30;35.60
27823;DHT22;29019;47.630;8.262;2022-12-18T19:02:13;15.30;35.70
27823;DHT22;29019;47.630;8.262;2022-12-18T19:06:15;15.30;35.70
27823;DHT22;29019;47.630;8.262;2022-12-18T19:10:16;15.30;35.70
27823;DHT22;29019;47.630;8.262;2022-12-18T19:14:17;15.30;35.70
27823;DHT22;29019;47.630;8.262;2022-12-18T19:18:17;15.30;35.60
27823;DHT22;29019;47.630;8.262;2022-12-18T19:22:18;15.30;35.60
27823;DHT22;29019;47.630;8.262;2022-12-18T19:26:19;15.30;35.70
27823;DHT22;29019;47.630;8.262;2022-12-18T19:30:19;15.30;35.60
27823;DHT22;29019;47.630;8.262;2022-12-18T19:34:20;15.30;35.60
27823;DHT22;29019;47.630;8.262;2022-12-18T19:38:20;15.30;35.60
27823;DHT22;29019;47.630;8.262;2022-12-18T19:42:21;15.30;35.60
27823;DHT22;29019;47.630;8.262;2022-12-18T19:46:22;15.30;35.70
27823;DHT22;29019;47.630;8.262;2022-12-18T19:50:23;15.30;35.60
27823;DHT22;29019;47.630;8.262;2022-12-18T19:54:23;15.30;35.60
27823;DHT22;29019;47.630;8.262;2022-12-18T19:58:23;15.40;35.60
27823;DHT22;29019;47.630;8.262;2022-12-18T20:02:24;15.40;35.60
27823;DHT22;29019;47.630;8.262;2022-12-18T20:07:06;15.40;35.60
27823;DHT22;29019;47.630;8.262;2022-12-18T20:10:48;15.40;35.60
27823;DHT22;29019;47.630;8.262;2022-12-18T20:14:48;15.40;35.70
27823;DHT22;29019;47.630;8.262;2022-12-18T20:18:49;15.50;35.70
27823;DHT22;29019;47.630;8.262;2022-12-18T20:22:49;15.50;35.70
27823;DHT22;29019;47.630;8.262;2022-12-18T20:26:50;15.50;35.70
27823;DHT22;29019;47.630;8.262;2022-12-18T20:30:50;15.40;35.60
27823;DHT22;29019;47.630;8.262;2022-12-18T20:34:57;15.50;35.60
27823;DHT22;29019;47.630;8.262;2022-12-18T20:38:57;15.40;35.60
27823;DHT22;29019;47.630;8.262;2022-12-18T20:42:58;15.40;35.60
27823;DHT22;29019;47.630;8.262;2022-12-18T20:46:59;15.40;35.60
27823;DHT22;29019;47.630;8.262;2022-12-18T20:51:06;15.40;35.50
27823;DHT22;29019;47.630;8.262;2022-12-18T20:55:07;15.40;35.60
27823;DHT22;29019;47.630;8.262;2022-12-18T20:59:08;15.40;35.60
27823;DHT22;29019;47.630;8.262;2022-12-18T21:03:09;15.40;35.60
27823;DHT22;29019;47.630;8.262;2022-12-18T21:07:10;15.30;35.60
27823;DHT22;29019;47.630;8.262;2022-12-18T21:11:12;15.30;35.70
27823;DHT22;29019;47.630;8.262;2022-12-18T21:15:31;15.30;35.70
27823;DHT22;29019;47.630;8.262;2022-12-18T21:19:31;15.30;35.70
27823;DHT22;29019;47.630;8.262;2022-12-18T21:23:32;15.30;35.70
27823;DHT22;29019;47.630;8.262;2022-12-18T21:27:32;15.30;35.80
27823;DHT22;29019;47.630;8.262;2022-12-18T21:31:34;15.30;35.80
27823;DHT22;29019;47.630;8.262;2022-12-18T21:35:35;15.30;35.80
27823;DHT22;29019;47.630;8.262;2022-12-18T21:39:35;15.30;35.80
27823;DHT22;29019;47.630;8.262;2022-12-18T21:43:36;15.30;35.80
27823;DHT22;29019;47.630;8.262;2022-12-18T21:47:55;15.40;35.70
27823;DHT22;29019;47.630;8.262;2022-12-18T21:51:56;15.40;35.70
27823;DHT22;29019;47.630;8.262;2022-12-18T21:55:57;15.40;35.70
27823;DHT22;29019;47.630;8.262;2022-12-18T21:59:58;15.40;35.70
27823;DHT22;29019;47.630;8.262;2022-12-18T22:03:58;15.40;35.60
27823;DHT22;29019;47.630;8.262;2022-12-18T22:07:59;15.40;35.60
27823;DHT22;29019;47.630;8.262;2022-12-18T22:12:00;15.50;35.70
27823;DHT22;29019;47.630;8.262;2022-12-18T22:16:01;15.40;35.60
27823;DHT22;29019;47.630;8.262;2022-12-18T22:20:01;15.50;35.60
27823;DHT22;29019;47.630;8.262;2022-12-18T22:24:05;15.50;35.70
27823;DHT22;29019;47.630;8.262;2022-12-18T22:28:06;15.50;35.60
27823;DHT22;29019;47.630;8.262;2022-12-18T22:32:25;15.50;35.60
27823;DHT22;29019;47.630;8.262;2022-12-18T22:36:26;15.50;35.60
27823;DHT22;29019;47.630;8.262;2022-12-18T22:40:27;15.50;35.70
27823;DHT22;29019;47.630;8.262;2022-12-18T22:44:28;15.40;35.60
27823;DHT22;29019;47.630;8.262;2022-12-18T22:48:28;15.50;35.70
27823;DHT22;29019;47.630;8.262;2022-12-18T22:52:29;15.50;35.70
27823;DHT22;29019;47.630;8.262;2022-12-18T22:56:29;15.40;35.70
27823;DHT22;29019;47.630;8.262;2022-12-18T23:00:30;15.50;35.70
27823;DHT22;29019;47.630;8.262;2022-12-18T23:04:31;15.40;35.60
27823;DHT22;29019;47.630;8.262;2022-12-18T23:08:33;15.50;35.70
27823;DHT22;29019;47.630;8.262;2022-12-18T23:12:33;15.40;35.70
27823;DHT22;29019;47.630;8.262;2022-12-18T23:16:36;15.40;35.60
27823;DHT22;29019;47.630;8.262;2022-12-18T23:20:37;15.50;35.70
27823;DHT22;29019;47.630;8.262;2022-12-18T23:24:37;15.40;35.70
27823;DHT22;29019;47.630;8.262;2022-12-18T23:28:38;15.40;35.70
27823;DHT22;29019;47.630;8.262;2022-12-18T23:32:39;15.40;35.70
27823;DHT22;29019;47.630;8.262;2022-12-18T23:36:39;15.40;35.70
27823;DHT22;29019;47.630;8.262;2022-12-18T23:40:40;15.40;35.70
27823;DHT22;29019;47.630;8.262;2022-12-18T23:44:40;15.40;35.70
27823;DHT22;29019;47.630;8.262;2022-12-18T23:48:41;15.40;35.70
27823;DHT22;29019;47.630;8.262;2022-12-18T23:52:41;15.40;35.70
27823;DHT22;29019;47.630;8.262;2022-12-18T23:56:42;15.40;35.70
